Latest Weather Observations for Montague Island

IDN60801

Issued at 8:52 pm EST Wednesday 5 August 2020 (issued every 10 minutes, with the page automatically refreshed every 10 minutes)

About weather observations | Map of weather stations | Latest weather observations for NSW | Other Formats
Station Details ID: 069017 Name: MONTAGUE ISLAND LIGHTHOUSE Lat: -36.25 Lon: 150.23 Height: 52.0 m
Data from the previous 72 hours. | See also: Recent months at Montague Island
Date/Time
EST
Temp
°C
App
Temp
°C
Dew
Point
°C
Rel
Hum
%
Delta-T
°C
Wind Press
QNH
hPa
Press
MSL
hPa
Rain since
9am
mm
Dir  Spd
km/h
Gust
km/h
Spd
kts
Gust
kts
05/08:30pm 11.2 2.5 -0.6 44 4.7 W 35 43 19 23 1011.9 1011.9 0.0
05/08:00pm 11.6 2.2 0.1 45 4.7 WNW 39 48 21 26 1011.5 1011.5 0.0
05/07:30pm 11.9 1.6 0.4 45 4.8 WNW 44 57 24 31 1010.9 1010.9 0.0
05/07:00pm 12.2 1.9 0.0 43 5.0 WNW 44 57 24 31 1010.1 1010.1 0.0
05/06:30pm 13.0 3.2 0.1 41 5.4 WNW 41 54 22 29 1010.0 1010.0 0.0
05/06:20pm 13.3 4.6 -0.3 39 5.6 WNW 35 52 19 28 1009.8 1009.8 0.0
05/06:00pm 13.3 7.2 0.3 41 5.5 W 22 30 12 16 1009.6 1009.6 0.0
05/05:30pm 13.6 6.2 -0.4 38 5.8 W 28 35 15 19 1009.2 1009.2 0.0
05/05:00pm 13.8 6.8 -0.3 38 5.9 W 26 33 14 18 1009.0 1009.0 0.0
05/04:30pm 14.0 7.3 1.3 42 5.5 WSW 26 33 14 18 1008.8 1008.8 0.0
05/04:00pm 14.1 5.6 0.7 40 5.7 WSW 35 43 19 23 1008.5 1008.5 0.0
05/03:30pm 14.0 5.2 1.3 42 5.5 SW 37 44 20 24 1008.3 1008.3 0.0
05/03:00pm 14.4 5.7 2.0 43 5.5 WSW 37 50 20 27 1008.1 1008.1 0.0
05/02:30pm 14.2 6.1 3.1 47 5.0 SW 35 44 19 24 1007.9 1007.9 0.0
05/02:00pm 13.8 4.6 3.6 50 4.6 SW 41 48 22 26 1008.1 1008.1 0.0
05/01:30pm 13.5 4.4 4.1 53 4.3 SW 41 50 22 27 1008.1 1008.1 0.0
05/01:00pm 13.2 3.7 3.8 53 4.3 SW 43 56 23 30 1008.3 1008.3 0.0
05/12:34pm 12.7 4.2 3.1 52 4.3 WSW 37 57 20 31 1008.3 1008.3 0.0
05/12:30pm 12.7 5.0 3.6 54 4.1 WSW 33 48 18 26 1008.3 1008.3 0.0
05/12:00pm 12.1 5.3 5.0 62 3.3 WSW 30 43 16 23 1008.8 1008.8 0.0
05/11:51am 11.2 2.5 4.0 61 3.2 WSW 39 57 21 31 1008.8 1008.8 0.0
05/11:30am 10.9 1.4 4.1 63 3.0 WSW 43 54 23 29 1008.6 1008.6 0.0
05/11:00am 10.7 1.4 4.8 67 2.7 SW 43 56 23 30 1008.8 1008.8 0.0
05/10:37am 11.3 3.5 2.9 56 3.7 SSW 33 54 18 29 1009.0 1009.0 0.0
05/10:30am 11.7 4.6 1.4 49 4.4 SSW 28 41 15 22 1009.0 1009.0 0.0
05/10:00am 11.9 7.2 1.0 47 4.6 WNW 15 28 8 15 1008.3 1008.3 0.0
05/09:30am 12.2 5.5 -1.0 40 5.3 WNW 24 32 13 17 1007.9 1007.9 0.0
05/09:00am 11.4 4.2 -2.4 38 5.4 WNW 26 35 14 19 1007.9 1007.9 0.0
05/08:30am 11.0 3.7 -2.8 38 5.3 WNW 26 33 14 18 1007.8 1007.8 0.0
05/08:00am 10.3 3.0 -2.7 40 4.9 W 26 37 14 20 1007.6 1007.6 0.0
05/07:30am 9.8 0.5 -2.2 43 4.6 WNW 37 50 20 27 1007.4 1007.4 0.0
05/07:16am 9.8 0.1 -2.5 42 4.7 WNW 39 63 21 34 1007.1 1007.1 0.0
05/07:00am 9.3 1.3 -2.6 43 4.5 W 30 39 16 21 1007.3 1007.3 0.0
05/06:30am 9.2 2.3 -2.7 43 4.5 WNW 24 32 13 17 1007.2 1007.2 0.0
05/06:00am 9.1 2.5 -3.4 41 4.6 W 22 32 12 17 1007.5 1007.5 0.0
05/05:30am 9.1 1.4 -3.1 42 4.5 W 28 39 15 21 1007.3 1007.3 0.0
05/05:00am 9.0 2.9 -2.0 46 4.2 W 20 28 11 15 1007.5 1007.5 0.0
05/04:30am 9.3 1.3 -2.0 45 4.3 WNW 30 39 16 21 1007.4 1007.4 0.0
05/04:00am 9.2 2.4 -1.8 46 4.2 WNW 24 35 13 19 1007.3 1007.3 0.0
05/03:30am 9.2 2.1 -1.5 47 4.1 W 26 41 14 22 1008.0 1008.0 0.0
05/03:00am 9.1 3.2 -2.5 44 4.4 WNW 19 26 10 14 1008.8 1008.8 0.0
05/02:30am 9.0 4.1 -3.2 42 4.5 WNW 13 20 7 11 1009.1 1009.1 0.0
05/02:00am 9.1 6.0 -2.5 44 4.4 NNW 4 15 2 8 1009.5 1009.5 0.0
05/01:30am 9.0 4.8 -3.5 41 4.6 W 9 22 5 12 1009.9 1009.9 0.0
05/01:00am 8.9 3.3 -2.7 44 4.3 W 17 26 9 14 1010.2 1010.2 0.0
05/12:30am 9.3 3.1 -3.3 41 4.7 W 20 33 11 18 1010.4 1010.4 0.0
05/12:00am 9.6 2.3 -2.7 42 4.6 W 26 41 14 22 1010.6 1010.6 0.0
 
Date/Time
EST
Temp
°C
App
Temp
°C
Dew
Point
°C
Rel
Hum
%
Delta-T
°C
Wind Press
QNH
hPa
Press
MSL
hPa
Rain since
9am
mm
Dir  Spd
km/h
Gust
km/h
Spd
kts
Gust
kts
04/11:30pm 9.6 0.6 -3.0 41 4.7 W 35 57 19 31 1010.6 1010.6 0.0
04/11:24pm 9.7 0.7 -2.6 42 4.6 W 35 57 19 31 1010.4 1010.4 0.0
04/11:00pm 9.8 0.9 -1.9 44 4.5 W 35 50 19 27 1010.5 1010.5 0.0
04/10:30pm 9.7 2.7 -3.9 38 5.0 W 24 44 13 24 1010.9 1010.9 0.0
04/10:00pm 9.9 3.0 -2.7 41 4.8 W 24 35 13 19 1011.1 1011.1 0.0
04/09:30pm 10.2 1.2 -2.8 40 4.9 W 35 48 19 26 1011.0 1011.0 0.0
04/09:00pm 10.4 2.2 -4.0 36 5.3 W 30 41 16 22 1010.9 1010.9 0.0
04/08:30pm 10.6 1.8 -4.2 35 5.4 W 33 44 18 24 1010.6 1010.6 0.0
04/08:00pm 11.0 1.1 -4.2 34 5.6 WNW 39 48 21 26 1010.3 1010.3 0.0
04/07:30pm 11.6 3.0 -2.9 36 5.6 WNW 33 43 18 23 1010.3 1010.3 0.0
04/07:00pm 11.7 2.0 -2.1 38 5.4 W 39 54 21 29 1009.9 1009.9 0.0
04/06:56pm 11.7 2.0 -2.5 37 5.5 W 39 52 21 28 1009.9 1009.9 0.0
04/06:30pm 11.4 6.3 4.2 61 3.2 WSW 20 32 11 17 1009.9 1009.9 0.0
04/06:00pm 11.2 6.4 5.7 69 2.6 SSW 20 28 11 15 1009.3 1009.3 0.0
04/05:30pm 11.1 5.7 6.5 73 2.2 SSW 24 33 13 18 1009.0 1009.0 0.0
04/05:00pm 11.0 5.4 7.1 77 1.9 S 26 33 14 18 1008.3 1008.3 0.0
04/04:30pm 11.4 6.4 7.9 79 1.7 S 24 37 13 20 1007.8 1007.8 0.0
04/04:00pm 11.4 5.5 7.7 78 1.8 S 28 35 15 19 1007.4 1007.4 0.0
04/03:30pm 11.7 4.9 7.8 77 1.9 S 33 39 18 21 1007.2 1007.2 0.0
04/03:00pm 12.0 4.3 8.5 79 1.7 S 39 46 21 25 1006.8 1006.8 0.0
04/02:30pm 12.3 5.4 8.8 79 1.8 S 35 44 19 24 1006.3 1006.3 0.0
04/02:00pm 12.6 5.5 9.6 82 1.5 S 37 48 20 26 1006.1 1006.1 0.0
04/01:30pm 13.0 5.5 9.6 80 1.7 SSE 39 52 21 28 1006.0 1006.0 0.0
04/01:00pm 13.4 5.8 10.4 82 1.6 SSE 41 46 22 25 1005.7 1005.7 0.0
04/12:31pm 14.9 9.3 10.3 74 2.4 SSE 30 50 16 27 1005.9 1005.9 0.0
04/12:30pm 15.2 10.2 10.8 75 2.3 S 28 41 15 22 1006.0 1006.0 0.0
04/12:00pm 17.6 14.5 10.2 62 4.0 N 17 24 9 13 1005.9 1005.9 0.0
04/11:30am 17.7 13.7 9.1 57 4.5 N 20 30 11 16 1006.3 1006.3 0.0
04/11:00am 17.0 12.5 8.4 57 4.4 N 22 32 12 17 1006.7 1006.7 0.0
04/10:30am 16.8 10.7 6.6 51 5.0 N 28 35 15 19 1006.9 1006.9 0.0
04/10:00am 16.4 9.0 6.8 53 4.8 N 35 43 19 23 1007.2 1007.2 0.0
04/09:30am 16.0 8.7 7.2 56 4.4 N 35 46 19 25 1007.2 1007.2 0.0
04/09:00am 15.8 9.3 8.1 60 3.9 N 32 41 17 22 1007.4 1007.4 0.0
04/08:30am 16.0 11.0 8.0 59 4.0 N 24 32 13 17 1007.6 1007.6 0.0
04/08:00am 15.2 10.8 8.9 66 3.2 N 22 28 12 15 1007.7 1007.7 0.0
04/07:30am 15.2 10.8 8.9 66 3.2 N 22 26 12 14 1007.9 1007.9 0.0
04/07:00am 15.3 10.7 6.6 56 4.3 NNW 20 24 11 13 1008.1 1008.1 0.0
04/06:30am 15.0 10.5 7.1 59 3.9 NNW 20 26 11 14 1008.1 1008.1 0.0
04/06:00am 15.0 11.0 6.8 58 4.0 NW 17 22 9 12 1008.3 1008.3 0.0
04/05:30am 14.4 11.0 7.7 64 3.3 NNW 15 22 8 12 1008.2 1008.2 0.0
04/05:00am 14.0 11.4 7.8 66 3.1 WNW 11 15 6 8 1008.4 1008.4 0.0
04/04:30am 14.4 11.3 7.2 62 3.5 NW 13 17 7 9 1008.4 1008.4 0.0
04/04:00am 14.3 12.0 8.9 70 2.8 NW 11 15 6 8 1008.4 1008.4 0.0
04/03:30am 15.4 10.2 7.4 59 4.0 NNW 24 30 13 16 1008.7 1008.7 0.0
04/03:00am 15.6 10.8 7.4 58 4.1 N 22 32 12 17 1008.8 1008.8 0.0
04/02:30am 15.5 10.9 8.0 61 3.8 N 22 28 12 15 1009.2 1009.2 0.0
04/02:00am 15.1 11.1 8.3 64 3.4 NNW 19 24 10 13 1009.6 1009.6 0.0
04/01:30am 15.4 10.6 7.4 59 4.0 N 22 26 12 14 1009.9 1009.9 0.0
04/01:00am 14.6 11.2 9.2 70 2.8 NNW 17 20 9 11 1010.4 1010.4 0.0
04/12:30am 14.7 10.2 8.6 67 3.1 NNW 22 26 12 14 1010.7 1010.7 0.0
04/12:00am 14.9 10.8 7.9 63 3.5 NNW 19 26 10 14 1010.9 1010.9 0.0
 
Date/Time
EST
Temp
°C
App
Temp
°C
Dew
Point
°C
Rel
Hum
%
Delta-T
°C
Wind Press
QNH
hPa
Press
MSL
hPa
Rain since
9am
mm
Dir  Spd
km/h
Gust
km/h
Spd
kts
Gust
kts
03/11:30pm 15.3 10.2 7.8 61 3.8 NW 24 28 13 15 1011.2 1011.2 0.0
03/11:00pm 15.0 10.8 8.3 64 3.4 NNW 20 26 11 14 1011.5 1011.5 0.0
03/10:30pm 14.5 11.1 9.1 70 2.8 NNW 17 22 9 12 1011.7 1011.7 0.0
03/10:00pm 15.2 11.4 6.0 54 4.4 WNW 15 17 8 9 1012.1 1012.1 0.0
03/09:30pm 15.6 11.0 5.8 52 4.7 W 19 20 10 11 1012.3 1012.3 0.0
03/09:00pm 14.7 9.9 7.5 62 3.6 WNW 22 26 12 14 1012.4 1012.4 0.0
03/08:30pm 13.6 12.2 11.0 84 1.4 WNW 9 13 5 7 1012.4 1012.4 0.0
03/08:00pm 14.0 12.2 10.8 81 1.7 WNW 11 13 6 7 1012.4 1012.4 0.0
03/07:30pm 14.2 12.4 9.4 73 2.5 NW 9 11 5 6 1012.2 1012.2 0.0
03/07:00pm 14.1 12.2 8.9 71 2.6 W 9 13 5 7 1012.3 1012.3 0.0
03/06:30pm 14.1 11.9 9.3 73 2.5 WSW 11 13 6 7 1012.5 1012.5 0.0
03/06:00pm 13.8 11.8 10.0 78 2.0 SW 11 13 6 7 1012.5 1012.5 0.0
03/05:30pm 13.8 12.2 10.2 79 1.9 SW 9 11 5 6 1012.3 1012.3 0.0
03/05:00pm 14.0 12.7 10.0 77 2.1 SW 7 11 4 6 1012.4 1012.4 0.0
03/04:30pm 14.3 13.1 9.7 74 2.4 SW 6 7 3 4 1012.5 1012.5 0.0
03/04:00pm 14.7 13.8 9.3 70 2.8 WSW 4 6 2 3 1012.5 1012.5 0.0
03/03:30pm 15.0 14.8 9.1 68 3.0 CALM 0 4 0 2 1012.6 1012.6 0.0
03/03:00pm 15.2 15.1 9.3 68 3.0 CALM 0 6 0 3 1012.8 1012.8 0.0
03/02:30pm 15.1 14.5 8.8 66 3.2 N 2 6 1 3 1013.1 1013.0 0.0
03/02:00pm 15.0 14.2 8.3 64 3.4 N 2 4 1 2 1013.2 1013.1 0.0
03/01:30pm 15.0 13.6 9.6 70 2.8 WNW 7 9 4 5 1013.5 1013.4 0.0
03/01:00pm 14.9 13.5 9.7 71 2.7 NNW 7 13 4 7 1013.8 1013.8 0.0
03/12:30pm 14.5 12.4 9.7 73 2.5 N 11 17 6 9 1014.1 1014.1 0.0
03/12:00pm 14.1 11.1 9.1 72 2.5 N 15 19 8 10 1014.6 1014.6 0.0
03/11:30am 13.7 10.1 8.5 71 2.6 N 17 22 9 12 1015.1 1015.1 0.0
03/11:00am 13.7 9.2 7.0 64 3.3 N 20 24 11 13 1015.6 1015.6 0.0
03/10:30am 13.4 9.6 7.4 67 2.9 N 17 22 9 12 1016.0 1016.0 0.0
03/10:00am 13.0 8.6 6.6 65 3.1 N 19 24 10 13 1016.4 1016.4 0.0
03/09:30am 13.0 8.9 7.7 70 2.6 NNW 19 22 10 12 1016.7 1016.7 0.0
03/09:00am 12.2 7.3 6.9 70 2.5 N 22 26 12 14 1016.8 1016.8 0.0
03/08:30am 11.5 6.5 6.6 72 2.3 N 22 28 12 15 1017.0 1017.0 0.0
03/08:00am 11.3 6.9 6.6 73 2.2 NNW 19 22 10 12 1017.3 1017.3 0.0
03/07:30am 10.6 6.9 6.4 75 2.0 NNW 15 19 8 10 1017.4 1017.4 0.0
03/07:00am 10.5 6.4 6.3 75 2.0 NW 17 20 9 11 1017.5 1017.5 0.0
03/06:30am 11.0 6.5 6.2 72 2.2 NNW 19 22 10 12 1017.3 1017.3 0.0
03/06:00am 10.6 6.1 6.2 74 2.1 NW 19 24 10 13 1017.1 1017.1 0.0
03/05:30am 10.6 5.5 6.0 73 2.1 NNW 22 26 12 14 1017.2 1017.2 0.0
03/05:00am 10.5 5.9 6.5 76 1.9 NNW 20 24 11 13 1017.1 1017.1 0.0
03/04:30am 10.1 6.6 7.3 83 1.3 NNW 15 17 8 9 1017.3 1017.3 0.0
03/04:00am 10.3 6.9 7.7 84 1.2 NW 15 19 8 10 1017.6 1017.6 0.0
03/03:30am 10.9 7.2 8.1 83 1.4 NNW 17 20 9 11 1017.9 1017.9 0.0
03/03:00am 10.8 7.2 8.4 85 1.2 NNW 17 20 9 11 1018.3 1018.3 0.0
03/02:30am 10.9 8.1 8.5 85 1.2 NNW 13 15 7 8 1018.6 1018.6 0.0
03/02:00am 11.3 9.5 9.6 89 0.9 NNW 9 11 5 6 1019.1 1019.1 0.0
03/01:30am 11.4 9.8 8.6 83 1.4 NNW 7 7 4 4 1019.6 1019.6 0.0
03/01:00am 11.6 10.1 8.3 80 1.6 NW 6 7 3 4 1020.0 1020.0 0.0
03/12:30am 11.7 9.9 8.0 78 1.8 NW 7 7 4 4 1020.4 1020.4 0.0
03/12:00am 11.9 9.9 7.2 73 2.3 NNW 7 9 4 5 1020.6 1020.6 0.0
 
Date/Time
EST
Temp
°C
App
Temp
°C
Dew
Point
°C
Rel
Hum
%
Delta-T
°C
Wind Press
QNH
hPa
Press
MSL
hPa
Rain since
9am
mm
Dir  Spd
km/h
Gust
km/h
Spd
kts
Gust
kts
02/11:30pm 12.0 9.8 7.9 76 2.0 NW 9 11 5 6 1021.0 1021.0 0.0
02/11:00pm 12.2 10.3 8.9 80 1.6 NW 9 13 5 7 1021.3 1021.3 0.0
02/10:30pm 12.8 10.9 9.1 78 1.9 NNW 9 11 5 6 1021.3 1021.3 0.0
02/10:00pm 12.8 11.3 9.3 79 1.8 NNW 7 9 4 5 1021.5 1021.5 0.0
02/09:30pm 12.9 10.6 9.0 77 2.0 NW 11 13 6 7 1021.8 1021.8 0.0
02/09:00pm 12.9 10.5 8.8 76 2.1 NW 11 13 6 7 1022.0 1022.0 0.0

Other formats

Comma delimited format used in spreadsheet applications
http://www.bom.gov.au/fwo/IDN60801/IDN60801.94939.axf

JavaScript Object Notation format (JSON) in row-major order
http://www.bom.gov.au/fwo/IDN60801/IDN60801.94939.json

Data quality

Most of these data are generated automatically and are frequently updated. Quality checks on data are not normally performed. It is possible for incorrect values to appear. Refer to information at About Latest Weather Observations and please check the disclaimer before using these data.